Vilnius, Lithuania
Current Conditions -  °F | °C
As of 11:20 PM on Thursday 23 Oct 2014 (Local Time) from EYVI Reporting Station
Clear Clear  
Wind Chill: 16°   Ceiling: Unl
Heat Index: 23°   Visibility: 6mi
Dew Point: 10°   Wind: 6mph
Humidity: 59%   Direction: 100°E
Pressure: 30.45"   Gusts: NA
Location:  54.7°N, 25.27°E
Report Text: EYVI 232020Z 10005KT 060V130 CAVOK M05/M12 Q1031 NOSIG
Loading
Personal Weather Stations






























Interactive Weather Map
Tropical Storm Tracking
New forecast layout! Learn more

10-Day Weather Forecast

Advertisements
Track Severe Weather on mobile